Kezdőlap
METAR-TAF:

METAR-TAF

Repülőterek :

Monte Cimone, Olaszország

földrajzi szélesség: 44-12N, földrajzi hosszúság: 010-42E, magasság: 2165 m

Jelenlegi meteorológiai megfigyelések

A jelentés 31 perccel ezelõtt készült, 08:55 UTC
Nyugat-délnyugati szél 23 kt
Hőmérséklet 0°C
Páratartalom 80%
Légköri nyomás 1012 hPa

METAR: LIVC 280855Z AUTO 24023KT //// 00/M03 Q1012

Idő: 10:26 (09:26 UTC)


TAF: hiányzik

Meteorológiai megfigyelések és előrejelzések több, mint 4000 repülőtéren (METAR és TAF jelentéseket).

A térképen piros és sárga pontok jelzik az elérhető meteorológiai állomásokat.

Mozgassa az egeret a pont fölött, hogy megjelenjen az állomás neve.

Azután kattintson az időjárási megfigyelések és előrejelzések megtekintéséhez.

A térkép megváltoztatása: kattintson a fekete keresztel jelölt zöld gombra ráközelítéshez, a vonallal jelölt zöld gombra távolításhoz, vagy a zöld nyilakra a szomszédos térképek eléréséhez.


METAR-TAF: